sensor_id;sensor_type;location;lat;lon;timestamp;P1;durP1;ratioP1;P2;durP2;ratioP2
2940;SDS011;1480;51.456;6.670;2022-11-20T00:00:41;23.40;;;16.40;;
2940;SDS011;1480;51.456;6.670;2022-11-20T00:03:08;25.30;;;17.30;;
2940;SDS011;1480;51.456;6.670;2022-11-20T00:05:35;27.97;;;15.83;;
2940;SDS011;1480;51.456;6.670;2022-11-20T00:08:02;23.67;;;16.63;;
2940;SDS011;1480;51.456;6.670;2022-11-20T00:10:29;21.83;;;16.87;;
2940;SDS011;1480;51.456;6.670;2022-11-20T00:12:57;23.40;;;17.10;;
2940;SDS011;1480;51.456;6.670;2022-11-20T00:15:25;29.97;;;18.40;;
2940;SDS011;1480;51.456;6.670;2022-11-20T00:17:53;24.47;;;15.83;;
2940;SDS011;1480;51.456;6.670;2022-11-20T00:20:19;26.63;;;16.33;;
2940;SDS011;1480;51.456;6.670;2022-11-20T00:22:46;21.40;;;14.70;;
2940;SDS011;1480;51.456;6.670;2022-11-20T00:25:14;26.30;;;16.37;;
2940;SDS011;1480;51.456;6.670;2022-11-20T00:27:41;27.93;;;18.30;;
2940;SDS011;1480;51.456;6.670;2022-11-20T00:30:08;20.83;;;15.60;;
2940;SDS011;1480;51.456;6.670;2022-11-20T00:32:37;21.70;;;15.27;;
2940;SDS011;1480;51.456;6.670;2022-11-20T00:35:04;24.00;;;15.30;;
2940;SDS011;1480;51.456;6.670;2022-11-20T00:37:31;21.03;;;15.00;;
2940;SDS011;1480;51.456;6.670;2022-11-20T00:39:58;20.83;;;15.83;;
2940;SDS011;1480;51.456;6.670;2022-11-20T00:42:25;20.37;;;15.77;;
2940;SDS011;1480;51.456;6.670;2022-11-20T00:44:52;26.47;;;17.87;;
2940;SDS011;1480;51.456;6.670;2022-11-20T00:47:19;26.93;;;17.97;;
2940;SDS011;1480;51.456;6.670;2022-11-20T00:49:47;26.17;;;16.30;;
2940;SDS011;1480;51.456;6.670;2022-11-20T00:52:14;25.67;;;16.00;;
2940;SDS011;1480;51.456;6.670;2022-11-20T00:54:41;27.80;;;16.70;;
2940;SDS011;1480;51.456;6.670;2022-11-20T00:57:08;24.57;;;17.13;;
2940;SDS011;1480;51.456;6.670;2022-11-20T00:59:35;20.57;;;16.20;;
2940;SDS011;1480;51.456;6.670;2022-11-20T01:02:02;23.07;;;16.40;;
2940;SDS011;1480;51.456;6.670;2022-11-20T01:04:29;22.20;;;14.20;;
2940;SDS011;1480;51.456;6.670;2022-11-20T01:06:57;22.87;;;16.10;;
2940;SDS011;1480;51.456;6.670;2022-11-20T01:09:24;20.90;;;14.70;;
2940;SDS011;1480;51.456;6.670;2022-11-20T01:11:51;20.37;;;14.27;;
2940;SDS011;1480;51.456;6.670;2022-11-20T01:14:19;23.40;;;16.70;;
2940;SDS011;1480;51.456;6.670;2022-11-20T01:16:47;21.43;;;16.60;;
2940;SDS011;1480;51.456;6.670;2022-11-20T01:19:16;18.20;;;13.20;;
2940;SDS011;1480;51.456;6.670;2022-11-20T01:21:44;21.87;;;15.87;;
2940;SDS011;1480;51.456;6.670;2022-11-20T01:24:15;20.33;;;14.83;;
2940;SDS011;1480;51.456;6.670;2022-11-20T01:26:43;21.47;;;15.47;;
2940;SDS011;1480;51.456;6.670;2022-11-20T01:29:12;21.47;;;14.50;;
2940;SDS011;1480;51.456;6.670;2022-11-20T01:31:40;18.90;;;15.33;;
2940;SDS011;1480;51.456;6.670;2022-11-20T01:34:09;22.17;;;16.17;;
2940;SDS011;1480;51.456;6.670;2022-11-20T01:36:37;18.37;;;14.43;;
2940;SDS011;1480;51.456;6.670;2022-11-20T01:39:06;19.30;;;13.87;;
2940;SDS011;1480;51.456;6.670;2022-11-20T01:41:37;20.83;;;15.40;;
2940;SDS011;1480;51.456;6.670;2022-11-20T01:44:22;22.40;;;16.27;;
2940;SDS011;1480;51.456;6.670;2022-11-20T01:47:30;18.33;;;13.43;;
2940;SDS011;1480;51.456;6.670;2022-11-20T01:50:03;18.50;;;15.60;;
2940;SDS011;1480;51.456;6.670;2022-11-20T01:52:33;25.90;;;19.63;;
2940;SDS011;1480;51.456;6.670;2022-11-20T01:55:04;23.10;;;16.50;;
2940;SDS011;1480;51.456;6.670;2022-11-20T01:57:36;23.20;;;16.40;;
2940;SDS011;1480;51.456;6.670;2022-11-20T02:00:05;17.20;;;14.10;;
2940;SDS011;1480;51.456;6.670;2022-11-20T02:02:40;23.07;;;16.30;;
2940;SDS011;1480;51.456;6.670;2022-11-20T02:05:12;22.00;;;15.40;;
2940;SDS011;1480;51.456;6.670;2022-11-20T02:07:46;21.63;;;16.67;;
2940;SDS011;1480;51.456;6.670;2022-11-20T02:10:14;20.03;;;15.50;;
2940;SDS011;1480;51.456;6.670;2022-11-20T02:12:43;28.30;;;17.50;;
2940;SDS011;1480;51.456;6.670;2022-11-20T02:15:27;19.23;;;15.47;;
2940;SDS011;1480;51.456;6.670;2022-11-20T02:17:54;21.23;;;15.07;;
2940;SDS011;1480;51.456;6.670;2022-11-20T02:20:21;21.03;;;16.10;;
2940;SDS011;1480;51.456;6.670;2022-11-20T02:22:49;21.63;;;16.87;;
2940;SDS011;1480;51.456;6.670;2022-11-20T02:25:21;23.97;;;17.00;;
2940;SDS011;1480;51.456;6.670;2022-11-20T02:27:50;23.00;;;16.53;;
2940;SDS011;1480;51.456;6.670;2022-11-20T02:30:17;19.87;;;16.23;;
2940;SDS011;1480;51.456;6.670;2022-11-20T02:32:44;22.53;;;17.10;;
2940;SDS011;1480;51.456;6.670;2022-11-20T02:38:07;24.33;;;17.60;;
2940;SDS011;1480;51.456;6.670;2022-11-20T02:40:36;24.00;;;17.40;;
2940;SDS011;1480;51.456;6.670;2022-11-20T02:43:03;24.27;;;17.73;;
2940;SDS011;1480;51.456;6.670;2022-11-20T02:45:30;24.90;;;19.20;;
2940;SDS011;1480;51.456;6.670;2022-11-20T02:47:57;21.40;;;16.87;;
2940;SDS011;1480;51.456;6.670;2022-11-20T02:50:23;23.50;;;17.53;;
2940;SDS011;1480;51.456;6.670;2022-11-20T02:52:50;22.60;;;18.30;;
2940;SDS011;1480;51.456;6.670;2022-11-20T02:55:17;24.30;;;17.80;;
2940;SDS011;1480;51.456;6.670;2022-11-20T02:57:46;26.50;;;20.63;;
2940;SDS011;1480;51.456;6.670;2022-11-20T03:00:13;28.87;;;18.63;;
2940;SDS011;1480;51.456;6.670;2022-11-20T03:02:40;24.23;;;18.90;;
2940;SDS011;1480;51.456;6.670;2022-11-20T03:05:08;24.23;;;16.93;;
2940;SDS011;1480;51.456;6.670;2022-11-20T03:07:35;25.93;;;17.20;;
2940;SDS011;1480;51.456;6.670;2022-11-20T03:10:02;22.37;;;16.40;;
2940;SDS011;1480;51.456;6.670;2022-11-20T03:12:29;25.10;;;16.93;;
2940;SDS011;1480;51.456;6.670;2022-11-20T03:14:57;23.63;;;18.30;;
2940;SDS011;1480;51.456;6.670;2022-11-20T03:17:24;29.23;;;17.20;;
2940;SDS011;1480;51.456;6.670;2022-11-20T03:19:51;22.60;;;16.30;;
2940;SDS011;1480;51.456;6.670;2022-11-20T03:22:18;21.13;;;17.40;;
2940;SDS011;1480;51.456;6.670;2022-11-20T03:24:45;21.83;;;16.53;;
2940;SDS011;1480;51.456;6.670;2022-11-20T03:27:12;23.27;;;17.67;;
2940;SDS011;1480;51.456;6.670;2022-11-20T03:29:39;21.07;;;15.50;;
2940;SDS011;1480;51.456;6.670;2022-11-20T03:32:07;21.97;;;15.97;;
2940;SDS011;1480;51.456;6.670;2022-11-20T03:34:34;23.53;;;17.77;;
2940;SDS011;1480;51.456;6.670;2022-11-20T03:37:01;24.40;;;16.70;;
2940;SDS011;1480;51.456;6.670;2022-11-20T03:39:28;24.07;;;17.23;;
2940;SDS011;1480;51.456;6.670;2022-11-20T03:41:55;27.03;;;17.17;;
2940;SDS011;1480;51.456;6.670;2022-11-20T03:44:22;23.07;;;17.37;;
2940;SDS011;1480;51.456;6.670;2022-11-20T03:46:49;22.53;;;18.53;;
2940;SDS011;1480;51.456;6.670;2022-11-20T03:49:17;24.27;;;18.23;;
2940;SDS011;1480;51.456;6.670;2022-11-20T03:51:44;22.03;;;16.57;;
2940;SDS011;1480;51.456;6.670;2022-11-20T03:54:11;25.80;;;18.40;;
2940;SDS011;1480;51.456;6.670;2022-11-20T03:56:38;29.70;;;21.60;;
2940;SDS011;1480;51.456;6.670;2022-11-20T03:59:05;29.13;;;19.00;;
2940;SDS011;1480;51.456;6.670;2022-11-20T04:01:33;29.67;;;20.63;;
2940;SDS011;1480;51.456;6.670;2022-11-20T04:04:02;31.27;;;21.50;;
2940;SDS011;1480;51.456;6.670;2022-11-20T04:06:33;29.03;;;18.97;;
2940;SDS011;1480;51.456;6.670;2022-11-20T04:09:02;31.43;;;21.53;;
2940;SDS011;1480;51.456;6.670;2022-11-20T04:11:30;32.07;;;23.23;;
2940;SDS011;1480;51.456;6.670;2022-11-20T04:13:59;28.97;;;20.93;;
2940;SDS011;1480;51.456;6.670;2022-11-20T04:16:28;31.53;;;18.83;;
2940;SDS011;1480;51.456;6.670;2022-11-20T04:18:56;33.23;;;21.23;;
2940;SDS011;1480;51.456;6.670;2022-11-20T04:21:24;28.90;;;18.67;;
2940;SDS011;1480;51.456;6.670;2022-11-20T04:23:54;24.50;;;18.97;;
2940;SDS011;1480;51.456;6.670;2022-11-20T04:26:22;23.93;;;17.83;;
2940;SDS011;1480;51.456;6.670;2022-11-20T04:28:50;26.50;;;19.40;;
2940;SDS011;1480;51.456;6.670;2022-11-20T04:31:18;26.47;;;19.70;;
2940;SDS011;1480;51.456;6.670;2022-11-20T04:33:46;27.17;;;18.57;;
2940;SDS011;1480;51.456;6.670;2022-11-20T04:36:14;29.67;;;22.10;;
2940;SDS011;1480;51.456;6.670;2022-11-20T04:38:42;27.50;;;21.13;;
2940;SDS011;1480;51.456;6.670;2022-11-20T04:41:13;23.53;;;18.70;;
2940;SDS011;1480;51.456;6.670;2022-11-20T04:43:45;23.50;;;17.80;;
2940;SDS011;1480;51.456;6.670;2022-11-20T04:46:12;25.07;;;19.27;;
2940;SDS011;1480;51.456;6.670;2022-11-20T04:48:39;21.67;;;15.90;;
2940;SDS011;1480;51.456;6.670;2022-11-20T04:51:06;20.40;;;15.90;;
2940;SDS011;1480;51.456;6.670;2022-11-20T04:53:33;22.20;;;15.33;;
2940;SDS011;1480;51.456;6.670;2022-11-20T04:56:00;23.23;;;16.73;;
2940;SDS011;1480;51.456;6.670;2022-11-20T04:58:29;24.73;;;15.77;;
2940;SDS011;1480;51.456;6.670;2022-11-20T05:01:00;22.40;;;15.90;;
2940;SDS011;1480;51.456;6.670;2022-11-20T05:03:28;24.03;;;16.53;;
2940;SDS011;1480;51.456;6.670;2022-11-20T05:05:55;23.53;;;15.60;;
2940;SDS011;1480;51.456;6.670;2022-11-20T05:08:22;23.83;;;17.13;;
2940;SDS011;1480;51.456;6.670;2022-11-20T05:10:49;21.47;;;15.33;;
2940;SDS011;1480;51.456;6.670;2022-11-20T05:13:15;22.63;;;16.30;;
2940;SDS011;1480;51.456;6.670;2022-11-20T05:15:44;21.63;;;17.13;;
2940;SDS011;1480;51.456;6.670;2022-11-20T05:18:11;28.00;;;17.63;;
2940;SDS011;1480;51.456;6.670;2022-11-20T05:20:38;21.97;;;16.23;;
2940;SDS011;1480;51.456;6.670;2022-11-20T05:23:04;22.50;;;17.53;;
2940;SDS011;1480;51.456;6.670;2022-11-20T05:25:31;24.23;;;18.33;;
2940;SDS011;1480;51.456;6.670;2022-11-20T05:27:58;26.60;;;18.50;;
2940;SDS011;1480;51.456;6.670;2022-11-20T05:30:25;23.03;;;18.20;;
2940;SDS011;1480;51.456;6.670;2022-11-20T05:32:53;19.87;;;15.27;;
2940;SDS011;1480;51.456;6.670;2022-11-20T05:35:20;24.93;;;17.30;;
2940;SDS011;1480;51.456;6.670;2022-11-20T05:37:47;23.87;;;18.00;;
2940;SDS011;1480;51.456;6.670;2022-11-20T05:40:14;22.33;;;17.20;;
2940;SDS011;1480;51.456;6.670;2022-11-20T05:42:41;21.27;;;17.30;;
2940;SDS011;1480;51.456;6.670;2022-11-20T05:45:08;23.33;;;16.60;;
2940;SDS011;1480;51.456;6.670;2022-11-20T05:47:36;21.40;;;16.30;;
2940;SDS011;1480;51.456;6.670;2022-11-20T05:50:04;22.87;;;18.53;;
2940;SDS011;1480;51.456;6.670;2022-11-20T05:52:32;20.30;;;16.63;;
2940;SDS011;1480;51.456;6.670;2022-11-20T05:54:58;21.07;;;16.83;;
2940;SDS011;1480;51.456;6.670;2022-11-20T05:57:25;17.83;;;15.73;;
2940;SDS011;1480;51.456;6.670;2022-11-20T05:59:52;24.50;;;17.57;;
2940;SDS011;1480;51.456;6.670;2022-11-20T06:02:19;20.53;;;16.37;;
2940;SDS011;1480;51.456;6.670;2022-11-20T06:04:46;18.93;;;16.50;;
2940;SDS011;1480;51.456;6.670;2022-11-20T06:07:15;25.10;;;16.43;;
2940;SDS011;1480;51.456;6.670;2022-11-20T06:09:42;25.10;;;17.37;;
2940;SDS011;1480;51.456;6.670;2022-11-20T06:12:09;23.57;;;16.37;;
2940;SDS011;1480;51.456;6.670;2022-11-20T06:14:36;23.03;;;17.10;;
2940;SDS011;1480;51.456;6.670;2022-11-20T06:17:02;24.77;;;16.90;;
2940;SDS011;1480;51.456;6.670;2022-11-20T06:19:29;21.23;;;16.10;;
2940;SDS011;1480;51.456;6.670;2022-11-20T06:21:56;22.67;;;16.50;;
2940;SDS011;1480;51.456;6.670;2022-11-20T06:24:24;19.63;;;14.23;;
2940;SDS011;1480;51.456;6.670;2022-11-20T06:26:51;22.90;;;17.67;;
2940;SDS011;1480;51.456;6.670;2022-11-20T06:29:18;20.93;;;17.10;;
2940;SDS011;1480;51.456;6.670;2022-11-20T06:31:45;25.10;;;17.80;;
2940;SDS011;1480;51.456;6.670;2022-11-20T06:34:12;20.77;;;16.30;;
2940;SDS011;1480;51.456;6.670;2022-11-20T06:36:39;18.70;;;15.13;;
2940;SDS011;1480;51.456;6.670;2022-11-20T06:39:06;23.23;;;17.63;;
2940;SDS011;1480;51.456;6.670;2022-11-20T06:41:34;21.40;;;17.20;;
2940;SDS011;1480;51.456;6.670;2022-11-20T06:44:03;23.40;;;17.40;;
2940;SDS011;1480;51.456;6.670;2022-11-20T06:46:30;26.30;;;18.37;;
2940;SDS011;1480;51.456;6.670;2022-11-20T06:48:57;27.60;;;17.40;;
2940;SDS011;1480;51.456;6.670;2022-11-20T06:51:24;22.23;;;16.97;;
2940;SDS011;1480;51.456;6.670;2022-11-20T06:53:51;23.20;;;17.90;;
2940;SDS011;1480;51.456;6.670;2022-11-20T06:56:18;25.17;;;17.90;;
2940;SDS011;1480;51.456;6.670;2022-11-20T06:58:46;22.67;;;18.10;;
2940;SDS011;1480;51.456;6.670;2022-11-20T07:01:13;25.50;;;18.90;;
2940;SDS011;1480;51.456;6.670;2022-11-20T07:03:41;25.53;;;18.70;;
2940;SDS011;1480;51.456;6.670;2022-11-20T07:06:09;26.17;;;18.77;;
2940;SDS011;1480;51.456;6.670;2022-11-20T07:08:36;24.07;;;18.03;;
2940;SDS011;1480;51.456;6.670;2022-11-20T07:11:04;26.10;;;18.80;;
2940;SDS011;1480;51.456;6.670;2022-11-20T07:13:32;26.63;;;18.70;;
2940;SDS011;1480;51.456;6.670;2022-11-20T07:16:02;34.87;;;23.47;;
2940;SDS011;1480;51.456;6.670;2022-11-20T07:18:31;32.43;;;22.00;;
2940;SDS011;1480;51.456;6.670;2022-11-20T07:20:59;32.77;;;21.07;;
2940;SDS011;1480;51.456;6.670;2022-11-20T07:23:27;25.80;;;19.10;;
2940;SDS011;1480;51.456;6.670;2022-11-20T07:25:54;28.57;;;19.93;;
2940;SDS011;1480;51.456;6.670;2022-11-20T07:28:21;26.37;;;20.37;;
2940;SDS011;1480;51.456;6.670;2022-11-20T07:30:51;25.00;;;19.40;;
2940;SDS011;1480;51.456;6.670;2022-11-20T07:33:20;30.90;;;21.17;;
2940;SDS011;1480;51.456;6.670;2022-11-20T07:35:47;31.60;;;20.20;;
2940;SDS011;1480;51.456;6.670;2022-11-20T07:38:14;27.10;;;20.00;;
2940;SDS011;1480;51.456;6.670;2022-11-20T07:40:41;27.27;;;20.77;;
2940;SDS011;1480;51.456;6.670;2022-11-20T07:43:08;28.27;;;20.50;;
2940;SDS011;1480;51.456;6.670;2022-11-20T07:45:35;27.20;;;19.60;;
2940;SDS011;1480;51.456;6.670;2022-11-20T07:48:02;26.70;;;18.87;;
2940;SDS011;1480;51.456;6.670;2022-11-20T07:50:30;29.80;;;20.80;;
2940;SDS011;1480;51.456;6.670;2022-11-20T07:53:01;30.90;;;21.40;;
2940;SDS011;1480;51.456;6.670;2022-11-20T07:55:29;25.07;;;18.17;;
2940;SDS011;1480;51.456;6.670;2022-11-20T07:57:55;26.77;;;20.27;;
2940;SDS011;1480;51.456;6.670;2022-11-20T08:00:23;28.63;;;19.93;;
2940;SDS011;1480;51.456;6.670;2022-11-20T08:02:51;28.00;;;19.20;;
2940;SDS011;1480;51.456;6.670;2022-11-20T08:05:18;25.43;;;20.13;;
2940;SDS011;1480;51.456;6.670;2022-11-20T08:07:46;27.50;;;20.30;;
2940;SDS011;1480;51.456;6.670;2022-11-20T08:10:14;28.40;;;19.93;;
2940;SDS011;1480;51.456;6.670;2022-11-20T08:12:45;30.00;;;19.87;;
2940;SDS011;1480;51.456;6.670;2022-11-20T08:15:30;25.10;;;18.80;;
2940;SDS011;1480;51.456;6.670;2022-11-20T08:18:01;26.20;;;21.30;;
2940;SDS011;1480;51.456;6.670;2022-11-20T08:20:29;24.63;;;18.97;;
2940;SDS011;1480;51.456;6.670;2022-11-20T08:23:01;32.13;;;21.50;;
2940;SDS011;1480;51.456;6.670;2022-11-20T08:25:30;29.57;;;20.97;;
2940;SDS011;1480;51.456;6.670;2022-11-20T08:27:58;35.27;;;22.40;;
2940;SDS011;1480;51.456;6.670;2022-11-20T08:30:25;34.10;;;21.90;;
2940;SDS011;1480;51.456;6.670;2022-11-20T08:32:53;33.10;;;22.07;;
2940;SDS011;1480;51.456;6.670;2022-11-20T08:35:20;28.67;;;21.73;;
2940;SDS011;1480;51.456;6.670;2022-11-20T08:37:48;28.00;;;19.03;;
2940;SDS011;1480;51.456;6.670;2022-11-20T08:40:16;25.57;;;19.90;;
2940;SDS011;1480;51.456;6.670;2022-11-20T08:42:47;24.33;;;17.70;;
2940;SDS011;1480;51.456;6.670;2022-11-20T08:45:14;32.00;;;20.43;;
2940;SDS011;1480;51.456;6.670;2022-11-20T08:47:42;25.17;;;18.10;;
2940;SDS011;1480;51.456;6.670;2022-11-20T08:50:09;24.33;;;16.70;;
2940;SDS011;1480;51.456;6.670;2022-11-20T08:52:36;26.70;;;17.90;;
2940;SDS011;1480;51.456;6.670;2022-11-20T08:55:04;23.40;;;16.90;;
2940;SDS011;1480;51.456;6.670;2022-11-20T08:57:33;23.30;;;17.40;;
2940;SDS011;1480;51.456;6.670;2022-11-20T09:00:09;26.47;;;17.87;;
2940;SDS011;1480;51.456;6.670;2022-11-20T09:02:38;28.23;;;19.23;;
2940;SDS011;1480;51.456;6.670;2022-11-20T09:05:05;25.57;;;17.23;;
2940;SDS011;1480;51.456;6.670;2022-11-20T09:07:32;27.80;;;19.17;;
2940;SDS011;1480;51.456;6.670;2022-11-20T09:09:59;26.00;;;17.93;;
2940;SDS011;1480;51.456;6.670;2022-11-20T09:12:26;22.77;;;17.43;;
2940;SDS011;1480;51.456;6.670;2022-11-20T09:14:55;24.77;;;17.60;;
2940;SDS011;1480;51.456;6.670;2022-11-20T09:17:21;26.97;;;17.77;;
2940;SDS011;1480;51.456;6.670;2022-11-20T09:19:48;25.47;;;15.73;;
2940;SDS011;1480;51.456;6.670;2022-11-20T09:22:15;22.93;;;17.47;;
2940;SDS011;1480;51.456;6.670;2022-11-20T09:24:42;24.60;;;19.37;;
2940;SDS011;1480;51.456;6.670;2022-11-20T09:27:09;24.40;;;17.93;;
2940;SDS011;1480;51.456;6.670;2022-11-20T09:29:36;20.40;;;15.37;;
2940;SDS011;1480;51.456;6.670;2022-11-20T09:32:04;24.90;;;17.10;;
2940;SDS011;1480;51.456;6.670;2022-11-20T09:34:32;18.77;;;15.07;;
2940;SDS011;1480;51.456;6.670;2022-11-20T09:36:58;23.33;;;16.17;;
2940;SDS011;1480;51.456;6.670;2022-11-20T09:39:25;24.87;;;16.73;;
2940;SDS011;1480;51.456;6.670;2022-11-20T09:41:56;29.43;;;18.83;;
2940;SDS011;1480;51.456;6.670;2022-11-20T09:44:56;23.07;;;15.73;;
2940;SDS011;1480;51.456;6.670;2022-11-20T09:47:35;23.40;;;15.03;;
2940;SDS011;1480;51.456;6.670;2022-11-20T09:50:19;20.97;;;16.13;;
2940;SDS011;1480;51.456;6.670;2022-11-20T09:52:56;27.10;;;17.80;;
2940;SDS011;1480;51.456;6.670;2022-11-20T09:55:38;25.87;;;17.60;;
2940;SDS011;1480;51.456;6.670;2022-11-20T09:58:05;25.50;;;17.27;;
2940;SDS011;1480;51.456;6.670;2022-11-20T10:00:34;23.20;;;16.20;;
2940;SDS011;1480;51.456;6.670;2022-11-20T10:03:06;26.70;;;18.20;;
2940;SDS011;1480;51.456;6.670;2022-11-20T10:05:41;24.07;;;18.10;;
2940;SDS011;1480;51.456;6.670;2022-11-20T10:08:13;23.17;;;17.93;;
2940;SDS011;1480;51.456;6.670;2022-11-20T10:10:44;23.87;;;18.10;;
2940;SDS011;1480;51.456;6.670;2022-11-20T10:13:21;24.60;;;13.63;;
2940;SDS011;1480;51.456;6.670;2022-11-20T10:16:01;28.47;;;16.03;;
2940;SDS011;1480;51.456;6.670;2022-11-20T10:18:42;22.60;;;16.57;;
2940;SDS011;1480;51.456;6.670;2022-11-20T10:21:20;27.93;;;17.60;;
2940;SDS011;1480;51.456;6.670;2022-11-20T10:23:58;24.07;;;16.53;;
2940;SDS011;1480;51.456;6.670;2022-11-20T10:26:59;25.50;;;17.30;;
2940;SDS011;1480;51.456;6.670;2022-11-20T10:29:39;26.17;;;17.90;;
2940;SDS011;1480;51.456;6.670;2022-11-20T10:32:11;30.10;;;19.47;;
2940;SDS011;1480;51.456;6.670;2022-11-20T10:34:46;24.10;;;17.03;;
2940;SDS011;1480;51.456;6.670;2022-11-20T10:37:18;25.83;;;18.30;;
2940;SDS011;1480;51.456;6.670;2022-11-20T10:39:50;24.77;;;18.57;;
2940;SDS011;1480;51.456;6.670;2022-11-20T10:42:24;28.23;;;20.17;;
2940;SDS011;1480;51.456;6.670;2022-11-20T10:44:58;26.60;;;18.10;;
2940;SDS011;1480;51.456;6.670;2022-11-20T10:47:35;31.93;;;19.83;;
2940;SDS011;1480;51.456;6.670;2022-11-20T10:50:05;32.13;;;20.33;;
2940;SDS011;1480;51.456;6.670;2022-11-20T10:52:37;28.43;;;19.30;;
2940;SDS011;1480;51.456;6.670;2022-11-20T10:55:18;30.70;;;20.47;;
2940;SDS011;1480;51.456;6.670;2022-11-20T10:57:54;30.73;;;20.77;;
2940;SDS011;1480;51.456;6.670;2022-11-20T11:00:30;30.83;;;20.33;;
2940;SDS011;1480;51.456;6.670;2022-11-20T11:02:57;28.57;;;19.33;;
2940;SDS011;1480;51.456;6.670;2022-11-20T11:05:33;27.03;;;19.07;;
2940;SDS011;1480;51.456;6.670;2022-11-20T11:08:04;32.33;;;20.60;;
2940;SDS011;1480;51.456;6.670;2022-11-20T11:10:39;27.33;;;18.60;;
2940;SDS011;1480;51.456;6.670;2022-11-20T11:13:18;30.50;;;20.37;;
2940;SDS011;1480;51.456;6.670;2022-11-20T11:15:48;35.90;;;20.03;;
2940;SDS011;1480;51.456;6.670;2022-11-20T11:18:23;28.47;;;19.67;;
2940;SDS011;1480;51.456;6.670;2022-11-20T11:20:54;28.97;;;19.53;;
2940;SDS011;1480;51.456;6.670;2022-11-20T11:23:28;33.20;;;20.23;;
2940;SDS011;1480;51.456;6.670;2022-11-20T11:25:58;28.20;;;17.90;;
2940;SDS011;1480;51.456;6.670;2022-11-20T11:28:27;26.50;;;17.80;;
2940;SDS011;1480;51.456;6.670;2022-11-20T11:30:54;27.90;;;18.60;;
2940;SDS011;1480;51.456;6.670;2022-11-20T11:33:22;29.60;;;18.03;;
2940;SDS011;1480;51.456;6.670;2022-11-20T11:35:50;28.50;;;18.90;;
2940;SDS011;1480;51.456;6.670;2022-11-20T11:38:26;27.00;;;17.00;;
2940;SDS011;1480;51.456;6.670;2022-11-20T11:40:56;27.60;;;18.17;;
2940;SDS011;1480;51.456;6.670;2022-11-20T11:43:24;31.47;;;19.80;;
2940;SDS011;1480;51.456;6.670;2022-11-20T11:46:21;31.03;;;20.07;;
2940;SDS011;1480;51.456;6.670;2022-11-20T11:48:56;30.57;;;19.00;;
2940;SDS011;1480;51.456;6.670;2022-11-20T11:51:27;27.13;;;19.97;;
2940;SDS011;1480;51.456;6.670;2022-11-20T11:53:59;29.30;;;16.67;;
2940;SDS011;1480;51.456;6.670;2022-11-20T11:56:29;27.63;;;17.73;;
2940;SDS011;1480;51.456;6.670;2022-11-20T11:59:00;26.17;;;17.27;;
2940;SDS011;1480;51.456;6.670;2022-11-20T12:01:34;23.93;;;15.80;;
2940;SDS011;1480;51.456;6.670;2022-11-20T12:04:13;30.80;;;17.90;;
2940;SDS011;1480;51.456;6.670;2022-11-20T12:06:47;32.97;;;19.80;;
2940;SDS011;1480;51.456;6.670;2022-11-20T12:09:19;25.20;;;17.53;;
2940;SDS011;1480;51.456;6.670;2022-11-20T12:11:49;28.03;;;18.33;;
2940;SDS011;1480;51.456;6.670;2022-11-20T12:14:23;29.50;;;18.03;;
2940;SDS011;1480;51.456;6.670;2022-11-20T12:16:56;28.87;;;18.63;;
2940;SDS011;1480;51.456;6.670;2022-11-20T12:19:23;31.03;;;19.40;;
2940;SDS011;1480;51.456;6.670;2022-11-20T12:21:56;30.53;;;19.20;;
2940;SDS011;1480;51.456;6.670;2022-11-20T12:24:38;28.10;;;17.27;;
2940;SDS011;1480;51.456;6.670;2022-11-20T12:27:23;28.27;;;19.73;;
2940;SDS011;1480;51.456;6.670;2022-11-20T12:30:08;33.43;;;18.33;;
2940;SDS011;1480;51.456;6.670;2022-11-20T12:32:41;27.53;;;17.87;;
2940;SDS011;1480;51.456;6.670;2022-11-20T12:35:38;27.10;;;17.83;;
2940;SDS011;1480;51.456;6.670;2022-11-20T12:38:32;24.70;;;16.80;;
2940;SDS011;1480;51.456;6.670;2022-11-20T12:41:19;29.43;;;19.07;;
2940;SDS011;1480;51.456;6.670;2022-11-20T12:44:16;26.67;;;16.37;;
2940;SDS011;1480;51.456;6.670;2022-11-20T12:47:11;37.50;;;18.90;;
2940;SDS011;1480;51.456;6.670;2022-11-20T12:49:47;34.73;;;19.23;;
2940;SDS011;1480;51.456;6.670;2022-11-20T12:52:26;30.40;;;20.10;;
2940;SDS011;1480;51.456;6.670;2022-11-20T12:55:15;33.00;;;18.83;;
2940;SDS011;1480;51.456;6.670;2022-11-20T12:57:50;30.07;;;19.40;;
2940;SDS011;1480;51.456;6.670;2022-11-20T13:00:21;24.17;;;16.60;;
2940;SDS011;1480;51.456;6.670;2022-11-20T13:05:59;24.37;;;16.63;;
2940;SDS011;1480;51.456;6.670;2022-11-20T13:08:34;27.83;;;18.10;;
2940;SDS011;1480;51.456;6.670;2022-11-20T13:11:07;22.97;;;16.70;;
2940;SDS011;1480;51.456;6.670;2022-11-20T13:13:42;33.50;;;19.27;;
2940;SDS011;1480;51.456;6.670;2022-11-20T13:16:29;27.00;;;17.67;;
2940;SDS011;1480;51.456;6.670;2022-11-20T13:19:01;30.80;;;18.37;;
2940;SDS011;1480;51.456;6.670;2022-11-20T13:21:35;31.10;;;20.60;;
2940;SDS011;1480;51.456;6.670;2022-11-20T13:24:04;32.00;;;19.80;;
2940;SDS011;1480;51.456;6.670;2022-11-20T13:26:32;30.50;;;18.77;;
2940;SDS011;1480;51.456;6.670;2022-11-20T13:29:01;31.63;;;19.17;;
2940;SDS011;1480;51.456;6.670;2022-11-20T13:31:34;26.53;;;17.90;;
2940;SDS011;1480;51.456;6.670;2022-11-20T13:34:04;26.73;;;17.90;;
2940;SDS011;1480;51.456;6.670;2022-11-20T13:36:32;29.40;;;18.70;;
2940;SDS011;1480;51.456;6.670;2022-11-20T13:39:02;31.50;;;17.90;;
2940;SDS011;1480;51.456;6.670;2022-11-20T13:41:30;30.13;;;18.60;;
2940;SDS011;1480;51.456;6.670;2022-11-20T13:44:10;31.67;;;18.40;;
2940;SDS011;1480;51.456;6.670;2022-11-20T13:46:41;28.60;;;17.80;;
2940;SDS011;1480;51.456;6.670;2022-11-20T13:49:14;30.13;;;18.27;;
2940;SDS011;1480;51.456;6.670;2022-11-20T13:51:44;27.37;;;19.27;;
2940;SDS011;1480;51.456;6.670;2022-11-20T13:54:17;35.67;;;20.27;;
2940;SDS011;1480;51.456;6.670;2022-11-20T13:57:23;33.73;;;20.67;;
2940;SDS011;1480;51.456;6.670;2022-11-20T14:00:04;30.90;;;17.93;;
2940;SDS011;1480;51.456;6.670;2022-11-20T14:02:38;30.80;;;20.17;;
2940;SDS011;1480;51.456;6.670;2022-11-20T14:05:11;33.43;;;20.80;;
2940;SDS011;1480;51.456;6.670;2022-11-20T14:07:45;31.77;;;18.90;;
2940;SDS011;1480;51.456;6.670;2022-11-20T14:10:19;37.93;;;20.17;;
2940;SDS011;1480;51.456;6.670;2022-11-20T14:12:49;33.20;;;21.97;;
2940;SDS011;1480;51.456;6.670;2022-11-20T14:15:23;33.23;;;21.73;;
2940;SDS011;1480;51.456;6.670;2022-11-20T14:17:52;32.87;;;21.43;;
2940;SDS011;1480;51.456;6.670;2022-11-20T14:20:19;32.17;;;21.10;;
2940;SDS011;1480;51.456;6.670;2022-11-20T14:22:51;33.97;;;21.87;;
2940;SDS011;1480;51.456;6.670;2022-11-20T14:25:19;45.23;;;22.20;;
2940;SDS011;1480;51.456;6.670;2022-11-20T14:27:52;34.87;;;22.30;;
2940;SDS011;1480;51.456;6.670;2022-11-20T14:30:21;36.50;;;21.60;;
2940;SDS011;1480;51.456;6.670;2022-11-20T14:32:49;34.20;;;22.27;;
2940;SDS011;1480;51.456;6.670;2022-11-20T14:35:18;31.33;;;20.53;;
2940;SDS011;1480;51.456;6.670;2022-11-20T14:37:49;37.70;;;23.97;;
2940;SDS011;1480;51.456;6.670;2022-11-20T14:40:25;40.03;;;22.70;;
2940;SDS011;1480;51.456;6.670;2022-11-20T14:42:56;31.27;;;21.73;;
2940;SDS011;1480;51.456;6.670;2022-11-20T14:45:24;40.23;;;23.70;;
2940;SDS011;1480;51.456;6.670;2022-11-20T14:47:52;35.70;;;22.27;;
2940;SDS011;1480;51.456;6.670;2022-11-20T14:50:22;41.23;;;23.90;;
2940;SDS011;1480;51.456;6.670;2022-11-20T14:52:52;42.90;;;22.53;;
2940;SDS011;1480;51.456;6.670;2022-11-20T14:55:25;37.83;;;23.87;;
2940;SDS011;1480;51.456;6.670;2022-11-20T14:57:57;38.53;;;23.47;;
2940;SDS011;1480;51.456;6.670;2022-11-20T15:00:26;46.07;;;25.73;;
2940;SDS011;1480;51.456;6.670;2022-11-20T15:02:53;45.60;;;25.57;;
2940;SDS011;1480;51.456;6.670;2022-11-20T15:05:21;41.80;;;24.50;;
2940;SDS011;1480;51.456;6.670;2022-11-20T15:07:50;44.93;;;25.17;;
2940;SDS011;1480;51.456;6.670;2022-11-20T15:10:29;43.00;;;25.50;;
2940;SDS011;1480;51.456;6.670;2022-11-20T15:12:59;38.47;;;23.90;;